createdAt,value
2019-04-10T00:00:46.104Z,18.13
2019-04-10T00:05:52.101Z,14.53
2019-04-10T00:10:58.549Z,12.53
2019-04-10T00:16:03.849Z,17.27
2019-04-10T00:21:09.321Z,12.87
2019-04-10T00:26:15.223Z,15.93
2019-04-10T00:31:20.205Z,15.37
2019-04-10T00:36:25.108Z,16.63
2019-04-10T00:41:30.288Z,12.13
2019-04-10T00:46:35.781Z,12.93
2019-04-10T00:51:41.611Z,13.63
2019-04-10T00:56:48.507Z,15.90
2019-04-10T01:01:54.275Z,16.10
2019-04-10T01:07:00.164Z,14.53
2019-04-10T01:12:07.890Z,12.03
2019-04-10T01:17:13.659Z,13.57
2019-04-10T01:22:19.076Z,13.73
2019-04-10T01:27:24.326Z,13.83
2019-04-10T01:32:29.946Z,14.97
2019-04-10T01:37:46.671Z,12.67
2019-04-10T01:42:42.050Z,12.60
2019-04-10T01:47:47.618Z,14.10
2019-04-10T01:52:53.418Z,12.17
2019-04-10T01:58:00.952Z,10.50
2019-04-10T02:03:06.178Z,11.37
2019-04-10T02:08:13.531Z,9.73
2019-04-10T02:13:17.929Z,10.60
2019-04-10T02:18:23.506Z,11.43
2019-04-10T02:23:28.717Z,9.63
2019-04-10T02:28:33.966Z,10.67
2019-04-10T02:33:39.247Z,9.37
2019-04-10T02:38:59.690Z,9.73
2019-04-10T02:43:51.508Z,10.33
2019-04-10T02:48:58.042Z,8.73
2019-04-10T02:54:05.069Z,13.00
2019-04-10T02:59:11.263Z,11.27
2019-04-10T03:04:17.000Z,11.10
2019-04-10T03:09:37.002Z,11.60
2019-04-10T03:14:30.621Z,13.80
2019-04-10T03:19:36.028Z,11.60
2019-04-10T03:24:41.187Z,10.43
2019-04-10T03:29:46.778Z,12.07
2019-04-10T03:34:54.920Z,13.90
2019-04-10T03:40:00.151Z,12.10
2019-04-10T03:45:05.987Z,13.67
2019-04-10T03:50:10.979Z,14.53
2019-04-10T03:55:16.750Z,11.40
2019-04-10T04:00:22.463Z,11.20
2019-04-10T04:05:27.408Z,13.13
2019-04-10T04:10:32.914Z,9.70
2019-04-10T04:15:38.187Z,10.40
2019-04-10T04:20:43.413Z,9.33
2019-04-10T04:25:48.424Z,10.40
2019-04-10T04:30:53.942Z,9.83
2019-04-10T04:35:59.848Z,11.17
2019-04-10T04:41:05.397Z,9.10
2019-04-10T04:46:10.262Z,11.97
2019-04-10T04:51:15.957Z,10.80
2019-04-10T04:56:21.905Z,9.83
2019-04-10T05:01:27.570Z,10.43
2019-04-10T05:06:32.942Z,11.03
2019-04-10T05:11:38.498Z,11.00
2019-04-10T05:16:43.790Z,9.00
2019-04-10T05:21:49.846Z,8.77
2019-04-10T05:26:54.973Z,10.70
2019-04-10T05:32:00.850Z,10.47
2019-04-10T05:37:06.088Z,11.60
2019-04-10T05:42:12.670Z,9.30
2019-04-10T05:47:19.207Z,11.00
2019-04-10T05:52:24.606Z,11.03
2019-04-10T05:57:30.600Z,8.63
2019-04-10T06:02:36.324Z,9.37
2019-04-10T06:07:42.045Z,10.07
2019-04-10T06:12:46.941Z,9.77
2019-04-10T06:17:51.809Z,8.53
2019-04-10T06:22:57.310Z,8.37
2019-04-10T06:28:03.147Z,8.70
2019-04-10T06:33:08.235Z,10.00
2019-04-10T06:38:13.121Z,9.07
2019-04-10T06:43:19.068Z,11.37
2019-04-10T06:48:24.273Z,12.77
2019-04-10T06:53:29.773Z,10.17
2019-04-10T06:58:36.026Z,11.10
2019-04-10T07:03:52.687Z,10.63
2019-04-10T07:08:51.929Z,11.63
2019-04-10T07:13:57.022Z,13.57
2019-04-10T07:19:05.582Z,14.03
2019-04-10T07:24:10.952Z,11.50
2019-04-10T07:29:19.749Z,12.03
2019-04-10T07:34:25.577Z,11.80
2019-04-10T07:39:33.453Z,14.40
2019-04-10T07:44:37.518Z,12.00
2019-04-10T07:49:42.594Z,13.00
2019-04-10T07:54:48.166Z,11.30
2019-04-10T07:59:53.224Z,13.70
2019-04-10T08:04:58.444Z,14.07
2019-04-10T08:10:03.913Z,11.80
2019-04-10T08:15:09.148Z,11.07
2019-04-10T08:20:15.463Z,12.17
2019-04-10T08:25:20.593Z,12.87
2019-04-10T08:30:25.957Z,10.47
2019-04-10T08:35:31.529Z,12.67
2019-04-10T08:40:36.879Z,13.37
2019-04-10T08:45:47.184Z,12.30
2019-04-10T08:50:50.269Z,12.00
2019-04-10T08:55:56.701Z,11.30
2019-04-10T09:01:02.342Z,15.27
2019-04-10T09:06:07.739Z,12.33
2019-04-10T09:11:12.920Z,12.13
2019-04-10T09:16:18.440Z,12.37
2019-04-10T09:21:24.187Z,10.63
2019-04-10T09:26:29.236Z,13.87
2019-04-10T09:31:34.822Z,13.33
2019-04-10T09:36:40.330Z,14.30
2019-04-10T09:41:46.047Z,12.77
2019-04-10T09:46:51.680Z,13.97
2019-04-10T09:51:56.733Z,15.50
2019-04-10T09:57:03.332Z,12.33
2019-04-10T10:02:09.215Z,13.07
2019-04-10T10:07:14.584Z,13.97
2019-04-10T10:12:20.198Z,11.90
2019-04-10T10:17:25.553Z,16.27
2019-04-10T10:22:30.923Z,14.97
2019-04-10T10:27:37.105Z,12.63
2019-04-10T10:32:42.303Z,15.70
2019-04-10T10:37:50.214Z,14.20
2019-04-10T11:01:20.430Z,14.67
2019-04-10T11:06:28.072Z,14.77
2019-04-10T11:11:33.079Z,14.67
2019-04-10T11:16:39.113Z,12.57
2019-04-10T11:21:45.079Z,14.97
2019-04-10T11:26:50.786Z,14.57
2019-04-10T11:31:58.000Z,12.00
2019-04-10T11:42:10.076Z,11.23
2019-04-10T11:47:15.153Z,14.47
2019-04-10T11:52:32.061Z,13.87
2019-04-10T11:57:30.182Z,11.17
2019-04-10T12:02:34.607Z,13.50
2019-04-10T12:08:22.200Z,13.77
2019-04-10T12:12:46.253Z,13.57
2019-04-10T12:17:52.005Z,11.60
2019-04-10T12:22:57.249Z,14.77
2019-04-10T12:28:03.315Z,12.43
2019-04-10T12:33:11.695Z,15.17
2019-04-10T12:38:17.493Z,14.33
2019-04-10T12:43:23.170Z,11.37
2019-04-10T12:48:28.827Z,14.10
2019-04-10T12:53:33.962Z,12.77
2019-04-10T12:58:39.297Z,14.97
2019-04-10T13:03:44.599Z,13.77
2019-04-10T13:08:59.166Z,12.67
2019-04-10T13:13:56.396Z,11.60
2019-04-10T13:19:02.797Z,14.23
2019-04-10T13:24:11.217Z,12.30
2019-04-10T13:29:16.413Z,13.73
2019-04-10T13:34:21.626Z,11.43
2019-04-10T13:39:26.941Z,12.30
2019-04-10T13:44:32.930Z,13.43
2019-04-10T13:49:37.929Z,12.67
2019-04-10T13:54:42.932Z,13.67
2019-04-10T13:59:49.231Z,12.80
2019-04-10T14:04:55.524Z,13.47
2019-04-10T14:10:01.203Z,13.33
2019-04-10T14:15:07.752Z,11.77
2019-04-10T14:20:17.310Z,13.20
2019-04-10T14:25:33.800Z,14.30
2019-04-10T14:30:39.838Z,14.23
2019-04-10T14:35:45.387Z,13.23
2019-04-10T14:40:51.392Z,15.13
2019-04-10T14:45:57.625Z,12.23
2019-04-10T14:51:03.870Z,13.10
2019-04-10T14:56:10.224Z,13.90
2019-04-10T15:01:15.667Z,12.57
2019-04-10T15:06:22.736Z,11.97
2019-04-10T15:11:28.807Z,13.33
2019-04-10T15:16:34.091Z,12.77
2019-04-10T15:21:39.448Z,12.73
2019-04-10T15:26:44.575Z,13.23
2019-04-10T15:31:50.209Z,11.53
2019-04-10T15:36:56.353Z,11.13
2019-04-10T15:42:01.747Z,13.00
2019-04-10T15:47:15.894Z,10.90
2019-04-10T15:52:14.943Z,12.23
2019-04-10T15:57:20.143Z,14.67
2019-04-10T16:02:25.879Z,11.97
2019-04-10T16:07:31.324Z,11.70
2019-04-10T16:12:37.035Z,13.87
2019-04-10T16:17:58.827Z,13.83
2019-04-10T16:23:12.914Z,11.27
2019-04-10T16:28:17.997Z,11.50
2019-04-10T16:33:23.234Z,12.90
2019-04-10T16:38:28.857Z,12.53
2019-04-10T16:43:34.534Z,14.20
2019-04-10T16:48:40.027Z,10.70
2019-04-10T16:53:45.506Z,10.43
2019-04-10T16:58:52.078Z,10.33
2019-04-10T17:03:58.542Z,9.03
2019-04-10T17:09:05.589Z,10.27
2019-04-10T17:14:11.029Z,9.40
2019-04-10T17:19:16.224Z,8.90
2019-04-10T17:24:21.594Z,8.67
2019-04-10T17:29:27.249Z,8.10
2019-04-10T17:34:32.613Z,7.63
2019-04-10T17:39:37.690Z,9.43
2019-04-10T17:44:42.792Z,7.33
2019-04-10T17:49:49.727Z,6.90
2019-04-10T17:54:55.465Z,9.77
2019-04-10T18:00:00.691Z,9.70
2019-04-10T18:05:06.505Z,9.67
2019-04-10T18:10:11.960Z,8.57
2019-04-10T18:15:16.956Z,8.07
2019-04-10T18:20:22.095Z,7.60
2019-04-10T18:25:27.704Z,6.67
2019-04-10T18:30:34.581Z,6.23
2019-04-10T18:35:40.721Z,6.10
2019-04-10T18:40:53.212Z,8.23
2019-04-10T18:46:03.355Z,8.07
2019-04-10T18:50:59.826Z,7.67
2019-04-10T18:56:04.994Z,7.63
2019-04-10T19:01:31.404Z,7.03
2019-04-10T19:06:51.673Z,7.10
2019-04-10T19:11:56.952Z,7.10
2019-04-10T19:17:02.526Z,8.43
2019-04-10T19:22:09.611Z,8.17
2019-04-10T19:27:15.924Z,8.87
2019-04-10T19:32:24.736Z,7.30
2019-04-10T19:37:30.430Z,6.77
2019-04-10T19:42:35.707Z,7.20
2019-04-10T19:47:40.566Z,6.93
2019-04-10T19:52:46.685Z,6.20
2019-04-10T19:57:52.007Z,6.40
2019-04-10T20:02:59.365Z,8.00
2019-04-10T20:08:05.173Z,7.20
2019-04-10T20:13:09.720Z,6.17
2019-04-10T20:18:14.726Z,6.30
2019-04-10T20:23:21.519Z,7.77
2019-04-10T20:28:27.258Z,6.47
2019-04-10T20:33:32.627Z,6.60
2019-04-10T20:38:38.762Z,6.67
2019-04-10T20:43:44.842Z,5.33
2019-04-10T20:48:50.858Z,5.83
2019-04-10T20:53:56.114Z,5.80
2019-04-10T20:59:01.726Z,6.03
2019-04-10T21:04:09.461Z,4.87
2019-04-10T21:09:13.374Z,4.67
2019-04-10T21:14:19.164Z,4.03
2019-04-10T21:19:24.882Z,7.20
2019-04-10T21:24:31.473Z,5.37
2019-04-10T21:29:46.869Z,6.90
2019-04-10T21:34:53.428Z,6.13
2019-04-10T21:40:00.385Z,6.57
2019-04-10T21:45:06.058Z,5.87
2019-04-10T21:50:13.669Z,5.43
2019-04-10T21:55:19.152Z,5.60
2019-04-10T22:00:39.576Z,4.77
2019-04-10T22:05:47.322Z,6.63
2019-04-10T22:10:52.497Z,5.23
2019-04-10T22:15:58.268Z,6.87
2019-04-10T22:21:04.050Z,6.10
2019-04-10T22:26:09.570Z,5.03
2019-04-10T22:31:15.805Z,5.80
2019-04-10T22:36:21.187Z,6.50
2019-04-10T22:41:30.650Z,4.73
2019-04-10T22:46:34.222Z,5.87
2019-04-10T22:51:39.789Z,4.07
2019-04-10T22:56:45.643Z,5.67
2019-04-10T23:02:00.412Z,5.57
2019-04-10T23:06:58.006Z,5.00
2019-04-10T23:12:02.964Z,4.43
2019-04-10T23:17:08.547Z,4.53
2019-04-10T23:22:13.790Z,4.97
2019-04-10T23:27:19.821Z,5.50
2019-04-10T23:32:27.016Z,4.03
2019-04-10T23:37:33.028Z,4.67
2019-04-10T23:42:38.571Z,4.57
2019-04-10T23:47:44.430Z,3.90
2019-04-10T23:52:49.807Z,4.93
2019-04-10T23:57:55.903Z,4.83
